createdAt,value
2024-01-22T00:02:11.118Z,92197.81
2024-01-22T00:04:37.496Z,92198.25
2024-01-22T00:07:03.862Z,92196.47
2024-01-22T00:09:30.185Z,92192.16
2024-01-22T00:11:56.583Z,92196.25
2024-01-22T00:14:22.923Z,92196.19
2024-01-22T00:16:49.271Z,92188.44
2024-01-22T00:19:15.804Z,92186.50
2024-01-22T00:21:43.452Z,92181.03
2024-01-22T00:24:10.263Z,92170.56
2024-01-22T00:26:36.669Z,92169.63
2024-01-22T00:29:03.070Z,92161.97
2024-01-22T00:31:29.935Z,92163.63
2024-01-22T00:33:56.383Z,92157.31
2024-01-22T00:36:22.923Z,92161.69
2024-01-22T00:38:49.323Z,92157.69
2024-01-22T00:41:15.716Z,92164.13
2024-01-22T00:43:42.071Z,92159.53
2024-01-22T00:46:08.403Z,92148.53
2024-01-22T00:48:34.880Z,92152.09
2024-01-22T00:51:01.305Z,92161.03
2024-01-22T00:53:27.712Z,92154.38
2024-01-22T00:55:54.067Z,92155.31
2024-01-22T00:58:20.417Z,92159.13
2024-01-22T01:00:46.869Z,92158.63
2024-01-22T01:03:13.588Z,92157.66
2024-01-22T01:05:40.171Z,92159.56
2024-01-22T01:08:06.671Z,92157.09
2024-01-22T01:10:33.022Z,92162.63
2024-01-22T01:12:59.441Z,92162.41
2024-01-22T01:15:25.924Z,92161.94
2024-01-22T01:17:52.429Z,92158.19
2024-01-22T01:20:18.896Z,92167.16
2024-01-22T01:22:45.306Z,92164.09
2024-01-22T01:25:11.666Z,92159.22
2024-01-22T01:27:38.065Z,92156.63
2024-01-22T01:30:04.727Z,92162.22
2024-01-22T01:32:31.718Z,92156.38
2024-01-22T01:34:58.295Z,92153.84
2024-01-22T01:37:24.646Z,92165.34
2024-01-22T01:39:50.981Z,92167.72
2024-01-22T01:42:17.398Z,92177.22
2024-01-22T01:44:50.867Z,92171.88
2024-01-22T01:47:17.430Z,92167.03
2024-01-22T01:49:43.926Z,92171.16
2024-01-22T01:52:11.691Z,92171.28
2024-01-22T01:54:38.169Z,92161.47
2024-01-22T01:57:05.636Z,92166.19
2024-01-22T01:59:31.989Z,92162.63
2024-01-22T02:01:58.422Z,92168.81
2024-01-22T02:04:24.948Z,92167.84
2024-01-22T02:06:51.300Z,92161.59
2024-01-22T02:09:17.648Z,92166.44
2024-01-22T02:11:44.013Z,92163.16
2024-01-22T02:14:10.374Z,92166.00
2024-01-22T02:16:36.826Z,92148.19
2024-01-22T02:19:03.407Z,92161.28
2024-01-22T02:21:29.820Z,92159.13
2024-01-22T02:23:56.164Z,92164.63
2024-01-22T02:26:22.524Z,92155.56
2024-01-22T02:28:48.862Z,92156.06
2024-01-22T02:31:15.441Z,92153.16
2024-01-22T02:33:42.420Z,92153.63
2024-01-22T02:36:08.885Z,92157.25
2024-01-22T02:38:35.447Z,92156.22
2024-01-22T02:41:01.852Z,92157.81
2024-01-22T02:43:28.196Z,92145.97
2024-01-22T02:45:54.631Z,92142.38
2024-01-22T02:48:21.031Z,92161.53
2024-01-22T02:50:47.473Z,92152.09
2024-01-22T02:53:13.891Z,92150.69
2024-01-22T02:55:40.228Z,92153.66
2024-01-22T02:58:06.575Z,92154.53
2024-01-22T03:00:33.333Z,92152.66
2024-01-22T03:02:59.795Z,92153.88
2024-01-22T03:05:26.298Z,92158.63
2024-01-22T03:07:52.662Z,92158.84
2024-01-22T03:10:19.008Z,92160.47
2024-01-22T03:12:47.005Z,92152.94
2024-01-22T03:15:13.436Z,92157.25
2024-01-22T03:17:39.902Z,92153.91
2024-01-22T03:20:06.751Z,92167.47
2024-01-22T03:22:33.137Z,92158.06
2024-01-22T03:24:59.600Z,92153.97
2024-01-22T03:27:26.022Z,92158.50
2024-01-22T03:29:52.808Z,92161.34
2024-01-22T03:32:19.182Z,92155.66
2024-01-22T03:34:45.690Z,92162.44
2024-01-22T03:37:12.385Z,92149.97
2024-01-22T03:39:38.724Z,92154.41
2024-01-22T03:42:05.333Z,92153.06
2024-01-22T03:44:31.763Z,92140.53
2024-01-22T03:46:58.115Z,92121.81
2024-01-22T03:49:24.566Z,92118.19
2024-01-22T03:51:50.966Z,92117.50
2024-01-22T03:54:17.507Z,92120.53
2024-01-22T03:56:45.123Z,92121.53
2024-01-22T03:59:11.716Z,92119.81
2024-01-22T04:01:38.047Z,92114.69
2024-01-22T04:04:04.594Z,92114.16
2024-01-22T04:06:31.112Z,92099.19
2024-01-22T04:08:57.591Z,92101.09
2024-01-22T04:11:23.959Z,92100.09
2024-01-22T04:13:50.302Z,92110.22
2024-01-22T04:16:16.817Z,92102.94
2024-01-22T04:18:43.902Z,92107.59
2024-01-22T04:21:10.900Z,92106.88
2024-01-22T04:23:37.352Z,92101.19
2024-01-22T04:26:04.180Z,92104.91
2024-01-22T04:28:30.515Z,92098.19
2024-01-22T04:30:56.885Z,92088.13
2024-01-22T04:33:23.366Z,92093.72
2024-01-22T04:35:50.882Z,92090.19
2024-01-22T04:38:17.916Z,92092.34
2024-01-22T04:40:44.271Z,92096.78
2024-01-22T04:43:10.623Z,92092.03
2024-01-22T04:45:37.470Z,92085.31
2024-01-22T04:48:03.878Z,92083.34
2024-01-22T04:50:30.495Z,92086.22
2024-01-22T04:52:56.925Z,92086.34
2024-01-22T04:55:24.856Z,92076.84
2024-01-22T04:57:53.491Z,92071.94
2024-01-22T05:00:20.350Z,92073.41
2024-01-22T05:02:46.971Z,92073.44
2024-01-22T05:05:13.695Z,92091.03
2024-01-22T05:07:40.109Z,92082.19
2024-01-22T05:10:07.312Z,92075.78
2024-01-22T05:12:33.670Z,92075.94
2024-01-22T05:15:00.029Z,92068.19
2024-01-22T05:17:27.856Z,92074.84
2024-01-22T05:19:54.495Z,92083.16
2024-01-22T05:22:21.010Z,92079.22
2024-01-22T05:24:47.373Z,92072.34
2024-01-22T05:27:13.875Z,92057.78
2024-01-22T05:29:40.341Z,92063.63
2024-01-22T05:32:06.790Z,92057.91
2024-01-22T05:34:33.199Z,92058.41
2024-01-22T05:36:59.641Z,92055.72
2024-01-22T05:39:27.695Z,92058.13
2024-01-22T05:41:54.810Z,92053.03
2024-01-22T05:44:21.188Z,92048.91
2024-01-22T05:46:47.570Z,92051.88
2024-01-22T05:49:14.023Z,92052.97
2024-01-22T05:51:40.397Z,92044.81
2024-01-22T05:54:06.886Z,92048.72
2024-01-22T05:56:33.999Z,92053.81
2024-01-22T05:59:00.389Z,92051.06
2024-01-22T06:01:27.212Z,92059.22
2024-01-22T06:03:54.020Z,92052.41
2024-01-22T06:06:20.501Z,92054.88
2024-01-22T06:08:47.277Z,92053.28
2024-01-22T06:11:13.645Z,92041.28
2024-01-22T06:13:53.079Z,92038.16
2024-01-22T06:16:26.731Z,92031.47
2024-01-22T06:18:53.172Z,92031.91
2024-01-22T06:21:19.722Z,92027.03
2024-01-22T06:23:47.743Z,92032.50
2024-01-22T06:26:14.165Z,92017.72
2024-01-22T06:28:40.569Z,92014.78
2024-01-22T06:31:07.370Z,92022.31
2024-01-22T06:33:33.891Z,92024.78
2024-01-22T06:36:00.366Z,92047.56
2024-01-22T06:38:26.742Z,92047.44
2024-01-22T06:40:53.397Z,92043.59
2024-01-22T06:43:19.759Z,92034.44
2024-01-22T06:45:46.101Z,92041.88
2024-01-22T06:48:13.181Z,92037.44
2024-01-22T06:50:40.397Z,92043.72
2024-01-22T06:53:06.793Z,92018.53
2024-01-22T06:55:33.188Z,92004.34
2024-01-22T06:57:59.554Z,92002.53
2024-01-22T07:00:26.062Z,92001.81
2024-01-22T07:02:52.590Z,92001.03
2024-01-22T07:05:19.530Z,92008.66
2024-01-22T07:07:45.991Z,92023.88
2024-01-22T07:10:12.522Z,92022.44
2024-01-22T07:12:41.657Z,92026.03
2024-01-22T07:15:13.458Z,92025.50
2024-01-22T07:17:41.288Z,92011.97
2024-01-22T07:20:09.711Z,92004.69
2024-01-22T07:22:37.576Z,92007.28
2024-01-22T07:25:04.380Z,92011.13
2024-01-22T07:27:30.934Z,92005.25
2024-01-22T07:29:57.879Z,92019.41
2024-01-22T07:32:24.322Z,92018.75
2024-01-22T07:34:50.892Z,92024.66
2024-01-22T07:37:17.708Z,92030.28
2024-01-22T07:39:44.177Z,92032.41
2024-01-22T07:42:10.981Z,92033.56
2024-01-22T07:44:37.407Z,92032.06
2024-01-22T07:47:03.874Z,92034.53
2024-01-22T07:49:30.287Z,92037.69
2024-01-22T07:51:56.808Z,92041.56
2024-01-22T07:54:23.324Z,92030.41
2024-01-22T07:56:49.812Z,92037.84
2024-01-22T07:59:16.800Z,92043.09
2024-01-22T08:01:43.191Z,92054.59
2024-01-22T08:04:09.590Z,92051.63
2024-01-22T08:06:36.010Z,92058.06
2024-01-22T08:09:03.159Z,92050.84
2024-01-22T08:11:29.649Z,92059.09
2024-01-22T08:13:55.972Z,92060.84
2024-01-22T08:16:22.324Z,92057.97
2024-01-22T08:18:49.016Z,92048.81
2024-01-22T08:21:16.027Z,92057.44
2024-01-22T08:23:42.420Z,92054.97
2024-01-22T08:26:08.793Z,92068.59
2024-01-22T08:28:35.137Z,92072.91
2024-01-22T08:31:01.995Z,92061.63
2024-01-22T08:33:28.606Z,92046.59
2024-01-22T08:35:55.198Z,92061.03
2024-01-22T08:38:21.640Z,92068.53
2024-01-22T08:40:47.984Z,92067.38
2024-01-22T08:43:14.359Z,92058.03
2024-01-22T08:45:40.746Z,92058.00
2024-01-22T08:48:07.251Z,92064.56
2024-01-22T08:50:33.641Z,92069.28
2024-01-22T08:52:59.995Z,92058.94
2024-01-22T08:55:26.404Z,92041.59
2024-01-22T08:57:54.756Z,92046.28
2024-01-22T09:00:22.434Z,92048.66
2024-01-22T09:02:49.135Z,92063.69
2024-01-22T09:05:15.779Z,92050.44
2024-01-22T09:07:43.113Z,92054.47
2024-01-22T09:10:10.145Z,92054.69
2024-01-22T09:12:36.745Z,92047.94
2024-01-22T09:15:04.038Z,92043.94
2024-01-22T09:17:31.418Z,92037.91
2024-01-22T09:19:58.215Z,92030.75
2024-01-22T09:22:24.744Z,92022.53
2024-01-22T09:24:53.164Z,92017.25
2024-01-22T09:27:19.580Z,92031.03
2024-01-22T09:29:46.513Z,92026.47
2024-01-22T09:32:12.875Z,92031.94
2024-01-22T09:34:39.326Z,92031.34
2024-01-22T09:37:05.997Z,92048.81
2024-01-22T09:39:32.605Z,92038.59
2024-01-22T09:41:59.357Z,92035.25
2024-01-22T09:44:25.976Z,92027.09
2024-01-22T09:46:52.374Z,92016.97
2024-01-22T09:49:18.920Z,92006.72
2024-01-22T09:51:45.477Z,92003.06
2024-01-22T09:54:12.715Z,92013.19
2024-01-22T09:56:39.605Z,92013.34
2024-01-22T09:59:12.989Z,92009.31
2024-01-22T10:01:39.333Z,92002.53
2024-01-22T10:04:06.890Z,91999.88
2024-01-22T10:06:35.045Z,92003.53
2024-01-22T10:09:01.991Z,91993.50
2024-01-22T10:11:28.356Z,91996.19
2024-01-22T10:13:56.075Z,91992.00
2024-01-22T10:16:24.868Z,91991.47
2024-01-22T10:18:57.716Z,91984.44
2024-01-22T10:21:24.540Z,91975.38
2024-01-22T10:24:00.726Z,91972.31
2024-01-22T10:26:27.403Z,91965.97
2024-01-22T10:28:53.940Z,91952.44
2024-01-22T10:31:20.371Z,91945.06
2024-01-22T10:33:47.212Z,91949.94
2024-01-22T10:36:14.925Z,91944.84
2024-01-22T10:38:41.406Z,91935.28
2024-01-22T10:41:20.381Z,91938.00
2024-01-22T10:43:46.981Z,91940.16
2024-01-22T10:46:13.831Z,91917.19
2024-01-22T10:48:45.146Z,91896.50
2024-01-22T10:51:14.308Z,91921.09
2024-01-22T10:53:41.547Z,91903.38
2024-01-22T10:56:24.872Z,91898.50
2024-01-22T10:58:52.447Z,91899.25
2024-01-22T11:01:21.168Z,91882.03
2024-01-22T11:03:48.812Z,91880.50
2024-01-22T11:06:19.260Z,91869.53
2024-01-22T11:11:27.457Z,91857.50
2024-01-22T11:13:56.597Z,91848.72
2024-01-22T11:16:23.110Z,91850.03
2024-01-22T11:18:56.264Z,91830.31
2024-01-22T11:21:23.057Z,91833.59
2024-01-22T11:24:04.631Z,91825.56
2024-01-22T11:26:31.045Z,91813.41
2024-01-22T11:29:15.790Z,91803.06
2024-01-22T11:31:42.425Z,91794.56
2024-01-22T11:34:11.401Z,91791.25
2024-01-22T11:36:50.727Z,91779.34
2024-01-22T11:39:44.266Z,91776.34
2024-01-22T11:42:27.036Z,91783.91
2024-01-22T11:44:54.213Z,91788.56
2024-01-22T11:47:21.329Z,91771.50
2024-01-22T11:49:47.904Z,91760.66
2024-01-22T11:52:15.381Z,91751.91
2024-01-22T11:54:56.461Z,91740.78
2024-01-22T11:57:23.038Z,91734.69
2024-01-22T11:59:59.475Z,91729.66
2024-01-22T12:02:25.883Z,91715.97
2024-01-22T12:05:01.962Z,91711.41
2024-01-22T12:07:34.515Z,91709.75
2024-01-22T12:10:01.166Z,91699.53
2024-01-22T12:12:27.607Z,91697.47
2024-01-22T12:15:00.655Z,91696.97
2024-01-22T12:17:27.106Z,91687.44
2024-01-22T12:19:59.512Z,91695.56
2024-01-22T12:22:27.810Z,91686.31
2024-01-22T12:25:08.146Z,91686.38
2024-01-22T12:27:34.756Z,91682.66
2024-01-22T12:30:02.062Z,91665.91
2024-01-22T12:32:28.714Z,91663.06
2024-01-22T12:34:58.447Z,91648.41
2024-01-22T12:37:26.365Z,91642.28
2024-01-22T12:40:15.628Z,91631.00
2024-01-22T12:42:42.864Z,91634.84
2024-01-22T12:45:12.260Z,91621.13
2024-01-22T12:47:38.750Z,91606.50
2024-01-22T12:50:05.788Z,91609.31
2024-01-22T12:52:32.854Z,91590.81
2024-01-22T12:55:02.168Z,91597.19
2024-01-22T12:57:29.305Z,91595.66
2024-01-22T12:59:55.792Z,91587.13
2024-01-22T13:02:22.516Z,91579.19
2024-01-22T13:04:50.618Z,91566.53
2024-01-22T13:07:17.703Z,91579.41
2024-01-22T13:09:44.110Z,91577.97
2024-01-22T13:12:10.662Z,91575.44
2024-01-22T13:14:37.391Z,91575.94
2024-01-22T13:17:05.390Z,91570.13
2024-01-22T13:19:32.821Z,91567.81
2024-01-22T13:22:00.102Z,91562.97
2024-01-22T13:24:27.374Z,91545.53
2024-01-22T13:26:54.272Z,91535.59
2024-01-22T13:29:21.159Z,91535.66
2024-01-22T13:31:47.588Z,91526.44
2024-01-22T13:34:14.097Z,91528.91
2024-01-22T13:36:40.915Z,91525.66
2024-01-22T13:39:10.730Z,91521.34
2024-01-22T13:41:37.111Z,91520.03
2024-01-22T13:44:06.483Z,91502.22
2024-01-22T13:46:33.685Z,91505.97
2024-01-22T13:49:00.438Z,91514.47
2024-01-22T13:51:26.921Z,91508.38
2024-01-22T13:53:53.322Z,91496.97
2024-01-22T13:56:20.247Z,91502.34
2024-01-22T13:58:46.818Z,91496.41
2024-01-22T14:01:13.217Z,91494.16
2024-01-22T14:03:39.855Z,91488.69
2024-01-22T14:06:09.447Z,91484.75
2024-01-22T14:08:36.205Z,91487.53
2024-01-22T14:11:02.582Z,91500.50
2024-01-22T14:13:29.818Z,91502.56
2024-01-22T14:15:56.225Z,91515.06
2024-01-22T14:18:24.460Z,91538.13
2024-01-22T14:20:50.951Z,91567.22
2024-01-22T14:23:18.104Z,91572.16
2024-01-22T14:25:44.504Z,91588.81
2024-01-22T14:28:11.008Z,91605.53
2024-01-22T14:30:37.972Z,91616.16
2024-01-22T14:33:04.584Z,91625.22
2024-01-22T14:35:31.414Z,91612.28
2024-01-22T14:37:57.869Z,91635.28
2024-01-22T14:40:24.359Z,91644.25
2024-01-22T14:42:50.754Z,91631.50
2024-01-22T14:45:17.162Z,91662.44
2024-01-22T14:47:43.630Z,91662.19
2024-01-22T14:50:10.130Z,91696.41
2024-01-22T14:52:36.861Z,91699.44
2024-01-22T14:55:03.234Z,91698.81
2024-01-22T14:57:29.690Z,91696.22
2024-01-22T14:59:56.109Z,91699.19
2024-01-22T15:02:22.923Z,91692.53
2024-01-22T15:04:50.202Z,91686.91
2024-01-22T15:07:16.692Z,91685.00
2024-01-22T15:09:43.084Z,91683.50
2024-01-22T15:12:09.674Z,91673.78
2024-01-22T15:14:36.814Z,91685.97
2024-01-22T15:17:03.513Z,91684.34
2024-01-22T15:19:30.315Z,91672.91
2024-01-22T15:21:58.819Z,91672.91
2024-01-22T15:24:27.017Z,91661.72
2024-01-22T15:26:55.066Z,91655.69
2024-01-22T15:29:21.468Z,91666.28
2024-01-22T15:31:48.545Z,91669.69
2024-01-22T15:34:15.302Z,91689.97
2024-01-22T15:36:41.769Z,91705.88
2024-01-22T15:39:09.206Z,91732.03
2024-01-22T15:41:36.270Z,91750.94
2024-01-22T15:44:04.610Z,91735.81
2024-01-22T15:46:31.272Z,91723.19
2024-01-22T15:48:57.893Z,91713.09
2024-01-22T15:51:24.500Z,91696.75
2024-01-22T15:53:51.023Z,91682.81
2024-01-22T15:56:19.166Z,91677.28
2024-01-22T15:58:45.830Z,91675.50
2024-01-22T16:01:17.518Z,91693.53
2024-01-22T16:03:44.745Z,91721.72
2024-01-22T16:06:11.363Z,91759.78
2024-01-22T16:08:37.888Z,91771.97
2024-01-22T16:11:04.560Z,91759.91
2024-01-22T16:13:31.036Z,91737.63
2024-01-22T16:15:57.519Z,91740.09
2024-01-22T16:18:23.989Z,91751.38
2024-01-22T16:20:50.538Z,91751.00
2024-01-22T16:23:17.847Z,91748.72
2024-01-22T16:25:44.247Z,91778.09
2024-01-22T16:28:10.754Z,91801.75
2024-01-22T16:30:42.158Z,91792.47
2024-01-22T16:33:10.199Z,91781.00
2024-01-22T16:35:36.753Z,91786.81
2024-01-22T16:38:03.171Z,91787.47
2024-01-22T16:40:29.555Z,91779.66
2024-01-22T16:42:56.225Z,91791.88
2024-01-22T16:45:22.645Z,91789.72
2024-01-22T16:47:49.232Z,91804.28
2024-01-22T16:50:15.761Z,91805.59
2024-01-22T16:52:42.264Z,91781.72
2024-01-22T16:55:10.630Z,91765.63
2024-01-22T16:57:38.404Z,91779.84
2024-01-22T17:00:04.961Z,91765.44
2024-01-22T17:02:31.304Z,91758.81
2024-01-22T17:04:57.745Z,91755.56
2024-01-22T17:07:24.190Z,91759.47
2024-01-22T17:09:50.723Z,91745.34
2024-01-22T17:12:17.217Z,91758.28
2024-01-22T17:14:43.589Z,91755.50
2024-01-22T17:17:10.063Z,91768.66
2024-01-22T17:19:37.593Z,91769.94
2024-01-22T17:22:04.021Z,91767.28
2024-01-22T17:24:33.074Z,91767.13
2024-01-22T17:26:59.567Z,91765.75
2024-01-22T17:29:26.216Z,91790.06
2024-01-22T17:31:53.646Z,91779.50
2024-01-22T17:34:20.221Z,91772.97
2024-01-22T17:36:47.277Z,91770.94
2024-01-22T17:39:18.151Z,91754.47
2024-01-22T17:41:44.519Z,91746.41
2024-01-22T17:44:10.877Z,91751.34
2024-01-22T17:46:39.196Z,91769.16
2024-01-22T17:49:05.603Z,91764.88
2024-01-22T17:51:31.990Z,91766.03
2024-01-22T17:53:58.410Z,91777.78
2024-01-22T17:56:24.823Z,91814.94
2024-01-22T17:58:51.206Z,91826.28
2024-01-22T18:01:17.614Z,91832.88
2024-01-22T18:03:44.172Z,91836.97
2024-01-22T18:06:10.673Z,91836.16
2024-01-22T18:08:37.097Z,91849.69
2024-01-22T18:11:03.495Z,91845.38
2024-01-22T18:13:29.857Z,91822.78
2024-01-22T18:15:57.832Z,91810.63
2024-01-22T18:18:24.427Z,91824.66
2024-01-22T18:20:51.026Z,91822.97
2024-01-22T18:23:17.428Z,91817.91
2024-01-22T18:25:43.765Z,91817.19
2024-01-22T18:28:11.019Z,91824.09
2024-01-22T18:30:40.225Z,91827.25
2024-01-22T18:33:07.465Z,91830.66
2024-01-22T18:35:33.877Z,91830.19
2024-01-22T18:38:00.236Z,91824.59
2024-01-22T18:40:26.586Z,91824.97
2024-01-22T18:42:53.114Z,91833.78
2024-01-22T18:45:19.537Z,91823.19
2024-01-22T18:47:45.975Z,91826.22
2024-01-22T18:50:12.350Z,91834.75
2024-01-22T18:52:38.693Z,91837.47
2024-01-22T18:55:05.212Z,91836.78
2024-01-22T18:57:31.604Z,91826.84
2024-01-22T18:59:58.034Z,91830.66
2024-01-22T19:02:24.498Z,91841.00
2024-01-22T19:04:50.881Z,91848.00
2024-01-22T19:07:17.243Z,91855.19
2024-01-22T19:09:44.816Z,91872.22
2024-01-22T19:12:11.257Z,91885.78
2024-01-22T19:14:37.620Z,91876.56
2024-01-22T19:17:06.057Z,91884.84
2024-01-22T19:19:32.985Z,91896.66
2024-01-22T19:21:59.373Z,91891.19
2024-01-22T19:24:25.855Z,91887.59
2024-01-22T19:26:52.290Z,91878.47
2024-01-22T19:29:18.730Z,91899.47
2024-01-22T19:31:45.492Z,91895.22
2024-01-22T19:34:12.498Z,91913.56
2024-01-22T19:36:39.037Z,91924.53
2024-01-22T19:39:06.269Z,91941.00
2024-01-22T19:41:32.843Z,91940.06
2024-01-22T19:43:59.322Z,91923.06
2024-01-22T19:46:25.780Z,91918.97
2024-01-22T19:48:58.283Z,91913.34
2024-01-22T19:51:28.078Z,91930.09
2024-01-22T19:53:54.543Z,91933.31
2024-01-22T19:56:20.946Z,91917.03
2024-01-22T19:58:47.370Z,91919.06
2024-01-22T20:01:13.769Z,91902.41
2024-01-22T20:03:40.297Z,91908.69
2024-01-22T20:06:06.956Z,91916.19
2024-01-22T20:08:33.383Z,91922.16
2024-01-22T20:10:59.709Z,91925.22
2024-01-22T20:13:26.203Z,91934.00
2024-01-22T20:15:52.552Z,91929.75
2024-01-22T20:18:19.067Z,91930.16
2024-01-22T20:20:45.522Z,91936.78
2024-01-22T20:23:12.124Z,91938.09
2024-01-22T20:25:38.566Z,91932.50
2024-01-22T20:28:05.911Z,91930.97
2024-01-22T20:30:32.305Z,91941.34
2024-01-22T20:32:59.004Z,91947.31
2024-01-22T20:35:25.493Z,91950.47
2024-01-22T20:37:52.030Z,91956.75
2024-01-22T20:40:18.373Z,91965.53
2024-01-22T20:42:45.637Z,91978.03
2024-01-22T20:45:12.465Z,91981.16
2024-01-22T20:47:38.921Z,91991.91
2024-01-22T20:50:05.378Z,91998.91
2024-01-22T20:52:31.716Z,91946.19
2024-01-22T20:54:58.170Z,91987.03
2024-01-22T20:57:24.726Z,91991.00
2024-01-22T20:59:51.265Z,91988.47
2024-01-22T21:02:17.738Z,91990.16
2024-01-22T21:04:44.372Z,91981.09
2024-01-22T21:07:13.421Z,91976.81
2024-01-22T21:09:40.022Z,91984.50
2024-01-22T21:12:06.842Z,91991.50
2024-01-22T21:14:35.736Z,91986.50
2024-01-22T21:17:02.244Z,91981.44
2024-01-22T21:19:28.972Z,91990.38
2024-01-22T21:21:55.527Z,91995.66
2024-01-22T21:24:21.941Z,91999.06
2024-01-22T21:26:48.381Z,91998.31
2024-01-22T21:29:16.758Z,91997.09
2024-01-22T21:31:45.054Z,92007.81
2024-01-22T21:34:11.610Z,92008.00
2024-01-22T21:36:38.608Z,92009.56
2024-01-22T21:39:05.057Z,92003.91
2024-01-22T21:41:31.480Z,91998.00
2024-01-22T21:43:57.835Z,92014.28
2024-01-22T21:46:24.211Z,92024.34
2024-01-22T21:48:50.731Z,92023.63
2024-01-22T21:51:17.266Z,92029.50
2024-01-22T21:53:45.620Z,92024.47
2024-01-22T21:56:13.866Z,92027.78
2024-01-22T21:58:40.753Z,92016.22
2024-01-22T22:01:08.398Z,92009.88
2024-01-22T22:03:34.918Z,92009.47
2024-01-22T22:06:01.613Z,92008.50
2024-01-22T22:08:28.227Z,91989.75
2024-01-22T22:10:55.031Z,91998.91
2024-01-22T22:13:21.705Z,92003.38
2024-01-22T22:15:48.271Z,91998.47
2024-01-22T22:18:15.186Z,91998.69
2024-01-22T22:20:41.662Z,92007.84
2024-01-22T22:23:08.108Z,92009.19
2024-01-22T22:25:34.686Z,92019.16
2024-01-22T22:28:01.019Z,92015.19
2024-01-22T22:30:27.636Z,92026.84
2024-01-22T22:32:58.555Z,92009.03
2024-01-22T22:35:28.205Z,91997.47
2024-01-22T22:37:54.615Z,91996.47
2024-01-22T22:40:20.987Z,91990.22
2024-01-22T22:42:47.377Z,92000.22
2024-01-22T22:45:13.754Z,92000.44
2024-01-22T22:47:40.432Z,92014.63
2024-01-22T22:50:08.664Z,92019.09
2024-01-22T22:52:35.272Z,92022.31
2024-01-22T22:55:01.673Z,92014.00
2024-01-22T22:57:29.246Z,92019.84
2024-01-22T22:59:55.881Z,92019.75
2024-01-22T23:02:23.170Z,92019.19
2024-01-22T23:04:49.680Z,92022.03
2024-01-22T23:07:16.238Z,92016.25
2024-01-22T23:09:42.668Z,92015.03
2024-01-22T23:12:09.154Z,92031.31
2024-01-22T23:14:35.707Z,92019.06
2024-01-22T23:17:02.359Z,92016.69
2024-01-22T23:19:28.803Z,92028.38
2024-01-22T23:21:55.180Z,92023.59
2024-01-22T23:24:21.758Z,92032.25
2024-01-22T23:26:48.216Z,92022.72
2024-01-22T23:29:14.581Z,92018.56
2024-01-22T23:31:41.260Z,92021.41
2024-01-22T23:34:07.652Z,92022.91
2024-01-22T23:36:34.190Z,92039.75
2024-01-22T23:39:03.125Z,92044.19
2024-01-22T23:41:29.492Z,92049.81
2024-01-22T23:43:55.847Z,92042.53
2024-01-22T23:46:22.202Z,92046.03
2024-01-22T23:48:48.930Z,92063.47
2024-01-22T23:51:16.260Z,92071.25
2024-01-22T23:53:42.759Z,92078.06
2024-01-22T23:56:09.159Z,92073.13
2024-01-22T23:58:35.636Z,92067.22
